Time;durP1;ratioP1;P1;durP2;ratioP2;P2;SDS_P1;SDS_P2;PMS_P1;PMS_P2;Temp;Humidity;BMP_temperature;BMP_pressure;BME280_temperature;BME280_humidity;BME280_pressure;Samples;Min_cycle;Max_cycle;Signal;HPM_P1;HPM_P2
2024/04/01 00:00:25;;;;;;;8.80;2.53;;;7.80;99.90;;;7.19;100.00;98833.69;4202159;28;20039;-84
2024/04/01 00:02:25;;;;;;;6.72;2.38;;;7.90;99.90;;;7.20;100.00;98832.69;4202411;28;20470;-85
2024/04/01 00:04:26;;;;;;;9.27;2.47;;;7.90;99.90;;;7.30;100.00;98835.88;4184335;28;20032;-85
2024/04/01 00:06:27;;;;;;;5.90;1.77;;;8.00;99.90;;;7.32;100.00;98828.63;4201991;28;20029;-84
2024/04/01 00:08:28;;;;;;;6.97;2.42;;;8.00;99.90;;;7.39;100.00;98826.09;4184417;28;20021;-84
2024/04/01 00:10:29;;;;;;;7.40;1.77;;;8.10;99.90;;;7.42;100.00;98831.78;4201840;28;20476;-85
2024/04/01 00:12:29;;;;;;;6.57;2.28;;;8.10;99.90;;;7.41;100.00;98832.78;4183899;28;20067;-84
2024/04/01 00:14:30;;;;;;;8.55;1.85;;;8.10;99.90;;;7.44;100.00;98836.84;4201869;28;20039;-84
2024/04/01 00:16:31;;;;;;;7.57;1.90;;;8.20;99.90;;;7.51;100.00;98832.50;4202096;28;20031;-84
2024/04/01 00:18:32;;;;;;;6.35;1.42;;;8.20;99.90;;;7.55;100.00;98834.59;4167581;28;20030;-84
2024/04/01 00:20:33;;;;;;;5.93;2.60;;;8.30;99.90;;;7.59;100.00;98840.25;4201913;28;20103;-84
2024/04/01 00:22:34;;;;;;;7.47;2.10;;;8.30;99.90;;;7.63;100.00;98844.16;4201766;28;20028;-85
2024/04/01 00:24:34;;;;;;;3.05;1.40;;;8.30;99.90;;;7.67;100.00;98843.63;4184169;28;20507;-84
2024/04/01 00:26:35;;;;;;;10.00;2.95;;;8.40;99.90;;;7.69;100.00;98846.88;4183970;28;20029;-85
2024/04/01 00:28:36;;;;;;;10.07;2.78;;;8.40;99.90;;;7.74;100.00;98849.75;4184056;28;20036;-84
2024/04/01 00:30:37;;;;;;;5.20;2.38;;;8.40;99.90;;;7.79;100.00;98842.13;4201898;28;20031;-83
2024/04/01 00:32:38;;;;;;;7.28;1.80;;;8.50;99.90;;;7.84;100.00;98843.38;4184336;28;20022;-83
2024/04/01 00:34:38;;;;;;;11.48;3.20;;;8.50;99.90;;;7.86;100.00;98842.19;4201957;28;20032;-84
2024/04/01 00:36:39;;;;;;;10.20;2.60;;;8.60;99.90;;;7.86;100.00;98841.38;4183965;28;20049;-84
2024/04/01 00:38:40;;;;;;;6.93;1.75;;;8.60;99.90;;;7.92;100.00;98848.53;4190731;28;20024;-84
2024/04/01 00:40:41;;;;;;;3.83;1.70;;;8.60;99.90;;;7.94;100.00;98849.16;4201359;28;20020;-84
2024/04/01 00:42:42;;;;;;;5.13;1.55;;;8.60;99.90;;;7.92;100.00;98844.09;4183805;28;20025;-84
2024/04/01 00:44:42;;;;;;;8.88;2.45;;;8.70;99.90;;;7.96;100.00;98841.91;4183939;28;20030;-83
2024/04/01 00:46:44;;;;;;;3.60;1.83;;;8.70;99.90;;;7.95;100.00;98850.78;4183873;28;20029;-84
2024/04/01 00:48:46;;;;;;;3.83;1.15;;;8.70;99.90;;;7.93;100.00;98847.53;4201867;28;20056;-84
2024/04/01 00:50:49;;;;;;;6.47;1.50;;;8.70;99.90;;;7.97;100.00;98840.91;4184092;28;20024;-84
2024/04/01 00:52:50;;;;;;;7.53;1.10;;;8.70;99.90;;;7.93;100.00;98839.66;4184005;28;20024;-83
2024/04/01 00:54:52;;;;;;;3.70;1.30;;;8.70;99.90;;;7.91;100.00;98846.91;4167206;28;20030;-83
2024/04/01 00:56:53;;;;;;;6.00;1.40;;;8.70;99.90;;;7.90;100.00;98848.72;4200233;28;20028;-84
2024/04/01 00:58:56;;;;;;;8.50;1.95;;;8.70;99.90;;;7.90;100.00;98853.16;4183987;28;20025;-84
2024/04/01 01:00:57;;;;;;;6.80;1.90;;;8.70;99.90;;;7.92;100.00;98854.59;4183837;28;20017;-84
2024/04/01 01:02:59;;;;;;;3.15;1.20;;;8.70;99.90;;;7.89;100.00;98867.25;4183712;28;20419;-85
2024/04/01 01:05:00;;;;;;;7.55;1.65;;;8.70;99.90;;;7.88;100.00;98881.41;4183940;28;20436;-84
2024/04/01 01:07:01;;;;;;;4.93;1.30;;;8.70;99.90;;;7.82;100.00;98873.25;4201565;28;20024;-84
2024/04/01 01:09:02;;;;;;;4.25;1.27;;;8.60;99.90;;;7.89;100.00;98877.75;4183794;28;20108;-85
2024/04/01 01:11:04;;;;;;;7.05;1.55;;;8.60;99.90;;;7.93;100.00;98868.53;4200942;28;20051;-84
2024/04/01 01:13:05;;;;;;;5.20;1.23;;;8.70;99.90;;;7.97;100.00;98885.56;4191564;28;20041;-84
2024/04/01 01:15:09;;;;;;;8.75;1.80;;;8.70;99.90;;;7.97;100.00;98877.69;4201510;28;20029;-84
2024/04/01 01:17:11;;;;;;;;;;;8.60;99.90;;;7.92;100.00;98880.03;4201902;28;20032;-83
2024/04/01 01:19:14;;;;;;;5.65;1.67;;;8.60;99.90;;;7.86;100.00;98870.25;4183893;28;19909;-84
2024/04/01 01:21:14;;;;;;;6.50;1.75;;;8.60;99.90;;;7.84;100.00;98870.44;4183828;28;20034;-84
2024/04/01 01:23:15;;;;;;;8.02;1.27;;;8.60;99.90;;;7.79;100.00;98875.44;4200272;28;20029;-84
2024/04/01 01:25:16;;;;;;;7.47;1.30;;;8.50;99.90;;;7.69;100.00;98867.84;4200167;28;20017;-84
2024/04/01 01:27:17;;;;;;;7.70;0.85;;;8.50;99.90;;;7.63;100.00;98868.59;4183526;28;20043;-84
2024/04/01 01:29:18;;;;;;;9.88;1.00;;;8.40;99.90;;;7.56;100.00;98872.94;4200015;28;20031;-83
2024/04/01 01:31:20;;;;;;;6.85;1.20;;;8.30;99.90;;;7.48;100.00;98869.59;4183633;28;20029;-82
2024/04/01 01:33:22;;;;;;;5.20;1.02;;;8.30;99.90;;;7.44;100.00;98879.63;4183566;28;20047;-83
2024/04/01 01:35:28;;;;;;;5.75;1.95;;;8.20;99.90;;;7.43;100.00;98880.63;4201176;28;20051;-84
2024/04/01 01:37:28;;;;;;;8.82;2.17;;;8.20;99.90;;;7.43;100.00;98871.94;4166869;28;20054;-82
2024/04/01 01:39:29;;;;;;;5.97;1.23;;;8.20;99.90;;;7.46;100.00;98876.84;4201318;28;20035;-83
2024/04/01 01:41:30;;;;;;;4.78;1.38;;;8.20;99.90;;;7.50;100.00;98881.53;4200982;28;20039;-84
2024/04/01 01:43:31;;;;;;;8.23;1.27;;;8.20;99.90;;;7.51;100.00;98871.84;4201034;28;20062;-83
2024/04/01 01:45:32;;;;;;;2.88;0.85;;;8.20;99.90;;;7.44;100.00;98878.81;4199871;28;20024;-84
2024/04/01 01:47:37;;;;;;;5.00;1.05;;;8.20;99.90;;;7.39;100.00;98881.97;4201247;28;20028;-83
2024/04/01 01:49:38;;;;;;;5.28;1.08;;;8.20;99.90;;;7.31;100.00;98876.84;4183855;28;20104;-83
2024/04/01 01:51:40;;;;;;;3.95;1.00;;;8.10;99.90;;;7.21;100.00;98877.09;4201978;28;20545;-84
2024/04/01 01:53:41;;;;;;;3.65;1.33;;;8.00;99.90;;;7.16;100.00;98870.78;4186570;28;20025;-83
2024/04/01 01:55:42;;;;;;;3.08;1.20;;;7.90;99.90;;;7.15;100.00;98877.00;4202794;28;20101;-84
2024/04/01 01:57:43;;;;;;;5.45;1.15;;;7.90;99.90;;;7.18;100.00;98884.50;4186429;28;20464;-84
2024/04/01 01:59:44;;;;;;;7.60;1.63;;;7.90;99.90;;;7.18;100.00;98880.09;4203993;28;20054;-83
2024/04/01 02:01:45;;;;;;;5.50;1.42;;;7.90;99.90;;;7.19;100.00;98881.72;4186492;28;20033;-84
2024/04/01 02:03:45;;;;;;;5.53;1.38;;;8.00;99.90;;;7.18;100.00;98884.50;4186406;28;20037;-84
2024/04/01 02:05:50;;;;;;;3.95;1.20;;;8.00;99.90;;;7.15;100.00;98883.06;4203946;28;20406;-85
2024/04/01 02:07:50;;;;;;;;;;;7.90;99.90;;;7.03;100.00;98881.88;4186457;28;20021;-83
2024/04/01 02:09:51;;;;;;;3.78;1.00;;;7.90;99.90;;;6.98;100.00;98883.41;4186418;28;20457;-84
2024/04/01 02:11:53;;;;;;;5.40;1.13;;;7.80;99.90;;;6.90;100.00;98881.66;4186053;28;20443;-84
2024/04/01 02:13:54;;;;;;;4.88;1.63;;;7.70;99.90;;;6.84;100.00;98878.94;4195886;28;20083;-84
2024/04/01 02:16:09;;;;;;;4.93;0.90;;;7.70;99.90;;;6.79;100.00;98878.66;4205627;28;20488;-83
2024/04/01 02:18:10;;;;;;;7.20;1.20;;;7.60;99.90;;;6.80;100.00;98888.16;4203929;28;20043;-84
2024/04/01 02:20:17;;;;;;;5.15;1.17;;;7.60;99.90;;;6.76;100.00;98886.88;4203891;28;20029;-83
2024/04/01 02:22:22;;;;;;;4.30;0.98;;;7.50;99.90;;;6.74;100.00;98897.53;4203554;28;20025;-84
2024/04/01 02:24:25;;;;;;;6.03;1.80;;;7.50;99.90;;;6.71;100.00;98891.81;4203801;28;20060;-84
2024/04/01 02:26:26;;;;;;;6.53;1.43;;;7.50;99.90;;;6.70;100.00;98891.00;4185904;28;20033;-83
2024/04/01 02:28:28;;;;;;;9.57;1.30;;;7.50;99.90;;;6.68;100.00;98890.38;4203624;28;20399;-83
2024/04/01 02:30:29;;;;;;;8.88;1.30;;;7.50;99.90;;;6.63;100.00;98890.09;4185760;28;20021;-83
2024/04/01 02:32:30;;;;;;;5.65;1.00;;;7.40;99.90;;;6.58;100.00;98885.38;4203664;28;20021;-83
2024/04/01 02:34:31;;;;;;;4.82;0.88;;;7.40;99.90;;;6.53;100.00;98892.94;4203755;28;20028;-83
2024/04/01 02:36:32;;;;;;;9.45;2.42;;;7.30;99.90;;;6.49;100.00;98893.47;4185662;28;20041;-83
2024/04/01 02:38:33;;;;;;;5.28;1.52;;;7.30;99.90;;;6.46;100.00;98893.81;4203484;28;20028;-83
2024/04/01 02:40:33;;;;;;;3.60;1.00;;;7.30;99.90;;;6.42;100.00;98908.25;4203352;28;20372;-83
2024/04/01 02:42:34;;;;;;;7.78;1.48;;;7.20;99.90;;;6.33;100.00;98897.00;4203496;28;20397;-84
2024/04/01 02:44:35;;;;;;;3.00;1.00;;;7.10;99.90;;;6.32;100.00;98902.44;4185611;28;20500;-84
2024/04/01 02:46:36;;;;;;;9.90;1.20;;;7.10;99.90;;;6.29;100.00;98908.00;4202232;28;20024;-82
2024/04/01 02:48:37;;;;;;;5.07;1.00;;;7.10;99.90;;;6.26;100.00;98911.78;4203377;28;20111;-84
2024/04/01 02:50:37;;;;;;;7.38;0.90;;;7.00;99.90;;;6.24;100.00;98905.09;4185609;28;20032;-83
2024/04/01 02:52:38;;;;;;;3.70;1.33;;;7.00;99.90;;;6.21;100.00;98908.06;4203259;28;20031;-83
2024/04/01 02:54:39;;;;;;;1.83;0.80;;;7.00;99.90;;;6.23;100.00;98913.94;4185478;28;20032;-83
2024/04/01 02:56:40;;;;;;;8.88;1.10;;;7.00;99.90;;;6.24;100.00;98916.41;4202848;28;20036;-84
2024/04/01 02:58:43;;;;;;;10.13;1.17;;;7.00;99.90;;;6.29;100.00;98916.69;4185506;28;20055;-84
2024/04/01 03:00:45;;;;;;;6.43;0.93;;;7.00;99.90;;;6.27;100.00;98915.25;4185447;28;20029;-83
2024/04/01 03:02:47;;;;;;;4.85;1.23;;;7.00;99.90;;;6.32;100.00;98918.97;4185303;28;20080;-84
2024/04/01 03:04:48;;;;;;;6.97;1.00;;;7.10;99.90;;;6.49;100.00;98930.94;4185218;28;20021;-84
2024/04/01 03:06:49;;;;;;;9.30;2.47;;;7.20;99.90;;;6.63;100.00;98924.94;4202294;28;20031;-83
2024/04/01 03:08:50;;;;;;;12.35;1.90;;;7.30;99.90;;;6.76;100.00;98929.59;4197402;28;20036;-83
2024/04/01 03:11:02;;;;;;;5.97;1.20;;;7.40;99.90;;;6.90;100.00;98935.91;4202747;28;20029;-84
2024/04/01 03:13:08;;;;;;;6.90;1.92;;;7.50;99.90;;;6.99;100.00;98943.50;4203140;28;20046;-83
2024/04/01 03:15:16;;;;;;;7.97;1.05;;;7.60;99.90;;;7.05;100.00;98934.94;4203102;28;20106;-83
2024/04/01 03:17:17;;;;;;;5.25;1.45;;;7.70;99.90;;;7.14;100.00;98927.78;4202747;28;20085;-83
2024/04/01 03:19:18;;;;;;;7.10;1.20;;;7.80;99.90;;;7.16;100.00;98933.69;4201283;28;20025;-84
2024/04/01 03:21:19;;;;;;;12.27;1.63;;;7.80;99.90;;;7.18;100.00;98934.31;4202928;28;20022;-84
2024/04/01 03:23:19;;;;;;;8.80;1.42;;;7.80;99.90;;;7.15;100.00;98940.75;4202804;28;20074;-84
2024/04/01 03:25:20;;;;;;;11.00;1.52;;;7.80;99.90;;;7.10;100.00;98937.03;4202611;28;20021;-84
2024/04/01 03:27:22;;;;;;;6.97;1.30;;;7.90;99.90;;;7.08;100.00;98946.84;4184962;28;20017;-83
2024/04/01 03:29:23;;;;;;;8.65;1.42;;;7.80;99.90;;;7.02;100.00;98939.69;4202740;28;20056;-82
2024/04/01 03:31:23;;;;;;;6.85;1.58;;;7.80;99.90;;;7.04;100.00;98946.44;4185093;28;20032;-82
2024/04/01 03:33:24;;;;;;;10.13;1.38;;;7.80;99.90;;;7.05;100.00;98947.22;4184847;28;20024;-83
2024/04/01 03:35:26;;;;;;;7.30;1.10;;;7.90;99.90;;;7.09;100.00;98956.38;4184706;28;20033;-83
2024/04/01 03:37:26;;;;;;;5.85;1.10;;;7.90;99.90;;;7.12;100.00;98958.63;4202243;28;20155;-83
2024/04/01 03:39:32;;;;;;;12.30;1.63;;;7.80;99.90;;;7.18;100.00;98964.00;4202540;28;20025;-84
2024/04/01 03:41:33;;;;;;;7.25;1.17;;;7.90;99.90;;;7.24;100.00;98975.56;4184303;28;20511;-83
2024/04/01 03:43:34;;;;;;;8.40;0.95;;;7.90;99.90;;;7.29;100.00;98975.84;4202267;28;20025;-83
2024/04/01 03:45:36;;;;;;;7.60;0.90;;;8.00;99.90;;;7.30;100.00;98972.22;4202411;28;20028;-83
2024/04/01 03:47:38;;;;;;;8.75;1.33;;;8.00;99.90;;;7.31;100.00;98973.06;4217912;28;20039;-82
2024/04/01 03:49:39;;;;;;;5.25;0.90;;;8.00;99.90;;;7.28;100.00;98969.00;4184402;28;20033;-82
2024/04/01 03:51:39;;;;;;;5.68;1.35;;;8.10;99.90;;;7.37;100.00;98983.66;4202174;28;20035;-82
2024/04/01 03:53:40;;;;;;;8.20;1.10;;;8.10;99.90;;;7.37;100.00;98972.34;4202363;28;20029;-83
2024/04/01 03:55:41;;;;;;;4.03;1.27;;;8.10;99.90;;;7.44;100.00;98976.69;4202047;28;20037;-84
2024/04/01 03:57:42;;;;;;;4.35;1.38;;;8.20;99.90;;;7.47;100.00;98983.38;4202241;28;20107;-84
2024/04/01 03:59:43;;;;;;;7.45;1.30;;;8.20;99.90;;;7.46;100.00;98992.25;4202118;28;20396;-84
2024/04/01 04:01:44;;;;;;;8.32;1.60;;;8.20;99.90;;;7.48;100.00;98983.22;4184692;28;20032;-84
2024/04/01 04:03:45;;;;;;;5.85;1.52;;;8.20;99.90;;;7.53;100.00;98990.53;4185320;28;20104;-84
2024/04/01 04:05:46;;;;;;;7.15;1.65;;;8.20;99.90;;;7.57;100.00;98990.00;4205627;28;20021;-84
2024/04/01 04:07:47;;;;;;;5.40;1.48;;;8.30;99.90;;;7.60;100.00;98996.69;4201990;28;20028;-84
2024/04/01 04:09:49;;;;;;;6.05;1.60;;;8.30;99.90;;;7.65;100.00;99002.22;4202140;28;20036;-83
2024/04/01 04:11:49;;;;;;;4.68;1.48;;;8.30;99.90;;;7.58;100.00;99006.56;4184226;28;20108;-83
2024/04/01 04:13:50;;;;;;;9.98;1.70;;;8.30;99.90;;;7.52;100.00;99008.09;4184156;28;20041;-83
2024/04/01 04:15:51;;;;;;;8.77;1.25;;;8.30;99.90;;;7.48;100.00;99011.25;4200544;28;20021;-83
2024/04/01 04:17:52;;;;;;;9.40;1.85;;;8.20;99.90;;;7.39;100.00;99012.31;4200944;28;20058;-83
2024/04/01 04:19:53;;;;;;;12.05;1.88;;;8.20;99.90;;;7.38;100.00;99011.50;4202071;28;20028;-83
2024/04/01 04:21:55;;;;;;;7.30;1.20;;;8.10;99.90;;;7.31;100.00;99005.34;4201930;28;20035;-83
2024/04/01 04:23:55;;;;;;;7.35;1.27;;;8.10;99.90;;;7.25;100.00;99011.31;4201762;28;20438;-84
2024/04/01 04:25:56;;;;;;;7.35;1.10;;;8.00;99.90;;;7.20;100.00;99017.06;4183977;28;20025;-84
2024/04/01 04:27:57;;;;;;;5.40;0.90;;;8.00;99.90;;;7.10;100.00;99013.06;4201967;28;20020;-83
2024/04/01 04:29:58;;;;;;;7.97;1.30;;;7.90;99.90;;;7.05;100.00;99018.00;4201740;28;20025;-83
2024/04/01 04:32:09;;;;;;;9.70;1.15;;;7.90;99.90;;;7.00;100.00;99022.97;4167498;28;20028;-83
2024/04/01 04:34:10;;;;;;;11.00;1.30;;;7.80;99.90;;;7.02;100.00;99031.44;4184321;28;20416;-84
2024/04/01 04:36:11;;;;;;;8.07;1.23;;;7.80;99.90;;;7.06;100.00;99024.88;4183968;28;20056;-83
2024/04/01 04:38:12;;;;;;;10.23;1.05;;;7.80;99.90;;;7.08;100.00;99031.56;4196053;28;20033;-83
2024/04/01 04:40:14;;;;;;;7.75;1.10;;;7.80;99.90;;;7.03;100.00;99023.44;4201465;28;20518;-84
2024/04/01 04:42:15;;;;;;;5.38;1.20;;;7.90;99.90;;;6.94;100.00;99028.91;4184202;28;20068;-83
2024/04/01 04:44:16;;;;;;;10.43;1.35;;;7.80;99.90;;;6.92;100.00;99031.72;4183837;28;20036;-83
2024/04/01 04:46:17;;;;;;;10.00;2.25;;;7.80;99.90;;;6.93;100.00;99016.81;4201723;28;20025;-82
2024/04/01 04:48:17;;;;;;;5.43;0.82;;;7.80;99.90;;;6.91;100.00;99021.38;4183881;28;20019;-83
2024/04/01 04:50:19;;;;;;;6.45;0.98;;;7.70;99.90;;;6.89;100.00;99032.06;4201992;28;20032;-83
2024/04/01 04:52:20;;;;;;;8.93;1.00;;;7.70;99.90;;;6.87;100.00;99033.22;4184036;28;20036;-83
2024/04/01 04:54:20;;;;;;;11.75;1.35;;;7.70;99.90;;;6.79;100.00;99038.50;4201658;28;20025;-83
2024/04/01 04:56:21;;;;;;;9.10;0.80;;;7.60;99.90;;;6.77;100.00;99048.34;4201243;28;20024;-84
2024/04/01 04:58:22;;;;;;;4.95;0.90;;;7.50;99.90;;;6.71;100.00;99044.63;4183981;28;20062;-84
2024/04/01 05:00:23;;;;;;;6.32;1.33;;;7.50;99.90;;;6.68;100.00;99047.59;4200454;28;20482;-83
2024/04/01 05:02:24;;;;;;;9.00;1.42;;;7.50;99.90;;;6.68;100.00;99055.44;4201498;28;20495;-82
2024/04/01 05:04:25;;;;;;;7.22;0.93;;;7.40;99.90;;;6.61;100.00;99054.47;4200128;28;20492;-83
2024/04/01 05:06:26;;;;;;;9.25;1.63;;;7.40;99.90;;;6.61;100.00;99060.53;4183902;28;20586;-83
2024/04/01 05:08:27;;;;;;;5.68;1.77;;;7.40;99.90;;;6.57;100.00;99059.25;4201600;28;20028;-83
2024/04/01 05:10:28;;;;;;;3.85;0.80;;;7.40;99.90;;;6.55;100.00;99058.63;4183570;28;20052;-83
2024/04/01 05:12:30;;;;;;;5.30;1.10;;;7.40;99.90;;;6.46;100.00;99057.00;4201385;28;20025;-83
2024/04/01 05:14:30;;;;;;;8.02;1.05;;;7.30;99.90;;;6.42;100.00;99060.16;4201772;28;20032;-82
2024/04/01 05:16:32;;;;;;;9.77;1.10;;;7.20;99.90;;;6.36;100.00;99066.88;4201573;28;20024;-82
2024/04/01 05:18:34;;;;;;;6.45;0.70;;;7.10;99.90;;;6.33;100.00;99067.22;4183642;28;20151;-83
2024/04/01 05:20:36;;;;;;;6.82;1.20;;;7.10;99.90;;;6.34;100.00;99074.09;4183786;28;20044;-82
2024/04/01 05:22:37;;;;;;;5.15;0.80;;;7.10;99.90;;;6.37;100.00;99075.56;4183538;28;20060;-83
2024/04/01 05:24:37;;;;;;;3.55;0.80;;;7.10;99.90;;;6.38;100.00;99079.81;4201322;28;20039;-81
2024/04/01 05:26:38;;;;;;;12.45;1.40;;;7.10;99.90;;;6.39;100.00;99084.06;4202085;28;20031;-82
2024/04/01 05:28:39;;;;;;;6.13;1.02;;;7.10;99.90;;;6.41;100.00;99082.91;4204560;28;20028;-81
2024/04/01 05:30:40;;;;;;;8.70;1.40;;;7.20;99.90;;;6.49;100.00;99085.50;4204316;28;20031;-81
2024/04/01 05:32:42;;;;;;;6.20;1.02;;;7.30;99.90;;;6.62;100.00;99091.00;4204592;28;20035;-81
2024/04/01 05:34:43;;;;;;;4.25;0.98;;;7.40;99.90;;;6.73;100.00;99086.34;4186908;28;20037;-82
2024/04/01 05:36:44;;;;;;;6.40;1.60;;;7.50;99.90;;;6.79;100.00;99091.72;4186719;28;20088;-83
2024/04/01 05:38:45;;;;;;;4.07;1.02;;;7.50;99.90;;;6.75;100.00;99097.50;4177183;28;20030;-83
2024/04/01 05:40:46;;;;;;;5.95;1.17;;;7.50;99.90;;;6.72;100.00;99100.47;4187727;28;20037;-83
2024/04/01 05:42:47;;;;;;;10.52;0.80;;;7.50;99.90;;;6.62;100.00;99098.88;4186551;28;20033;-83
2024/04/01 05:44:48;;;;;;;7.50;1.35;;;7.40;99.90;;;6.58;100.00;99101.97;4187710;28;20036;-83
2024/04/01 05:46:49;;;;;;;7.38;1.52;;;7.40;99.90;;;6.54;100.00;99098.09;4186605;28;20442;-83
2024/04/01 05:48:50;;;;;;;4.40;0.98;;;7.30;99.90;;;6.61;100.00;99102.47;4187691;28;20033;-83
2024/04/01 05:50:52;;;;;;;8.63;0.88;;;7.40;99.90;;;6.59;100.00;99104.44;4186739;28;20451;-83
2024/04/01 05:52:53;;;;;;;13.75;1.52;;;7.40;99.90;;;6.62;100.00;99109.34;4186606;28;20033;-83
2024/04/01 05:54:54;;;;;;;6.53;1.20;;;7.40;99.90;;;6.62;100.00;99106.72;4186402;28;20443;-83
2024/04/01 05:56:56;;;;;;;6.82;1.35;;;7.40;99.90;;;6.56;100.00;99106.59;4187566;28;20090;-83
2024/04/01 05:58:56;;;;;;;8.40;1.45;;;7.40;99.90;;;6.59;100.00;99109.69;4186533;28;20060;-84
2024/04/01 06:01:00;;;;;;;9.13;1.23;;;7.30;99.90;;;6.60;100.00;99121.00;4186259;28;20025;-83
2024/04/01 06:03:01;;;;;;;4.88;0.75;;;7.40;99.90;;;6.54;100.00;99121.66;4187354;28;20029;-84
2024/04/01 06:05:02;;;;;;;6.22;0.73;;;7.30;99.90;;;6.55;100.00;99129.34;4186413;28;20032;-83
2024/04/01 06:07:03;;;;;;;8.65;0.75;;;7.30;99.90;;;6.55;100.00;99125.91;4187485;28;20025;-84
2024/04/01 06:09:04;;;;;;;7.18;0.98;;;7.30;99.90;;;6.65;100.00;99139.63;4187444;28;20393;-83
2024/04/01 06:11:05;;;;;;;4.43;0.93;;;7.30;99.90;;;6.64;100.00;99132.75;4187194;28;20028;-83
2024/04/01 06:13:06;;;;;;;8.32;1.20;;;7.40;99.90;;;6.64;100.00;99138.81;4187477;28;20025;-84
2024/04/01 06:15:07;;;;;;;4.93;1.08;;;7.40;99.90;;;6.63;100.00;99144.22;4187453;28;20068;-83
2024/04/01 06:17:08;;;;;;;6.05;1.15;;;7.40;99.90;;;6.65;100.00;99142.25;4187302;28;20025;-83
2024/04/01 06:19:09;;;;;;;2.78;0.82;;;7.40;99.90;;;6.65;100.00;99140.44;4187221;28;20021;-82
2024/04/01 06:21:10;;;;;;;5.90;1.75;;;7.40;99.90;;;6.67;100.00;99148.94;4187320;28;20025;-83
2024/04/01 06:23:11;;;;;;;5.72;1.45;;;7.40;99.90;;;6.69;100.00;99146.97;4185233;28;20021;-83
2024/04/01 06:25:12;;;;;;;8.30;1.15;;;7.40;99.90;;;6.71;100.00;99141.56;4185784;28;20028;-83
2024/04/01 06:27:13;;;;;;;6.47;0.90;;;7.40;99.90;;;6.74;100.00;99146.47;4187093;28;20021;-83
2024/04/01 06:29:14;;;;;;;6.22;1.52;;;7.40;99.90;;;6.81;100.00;99150.00;4187132;28;20060;-82
2024/04/01 06:31:16;;;;;;;8.25;0.98;;;7.50;99.90;;;6.86;100.00;99152.13;4187129;28;20025;-83
2024/04/01 06:33:17;;;;;;;6.97;1.10;;;7.50;99.90;;;6.87;100.00;99156.41;4181182;28;20026;-83
2024/04/01 06:35:18;;;;;;;8.20;1.00;;;7.50;99.90;;;6.90;100.00;99166.56;4184093;28;20039;-83
2024/04/01 06:37:19;;;;;;;4.35;1.33;;;7.60;99.90;;;6.92;100.00;99167.19;4185034;28;20060;-83
2024/04/01 06:39:20;;;;;;;2.97;0.98;;;7.60;99.90;;;6.94;100.00;99170.44;4186581;28;20029;-83
2024/04/01 06:41:21;;;;;;;3.47;0.80;;;7.60;99.90;;;6.95;100.00;99177.34;4185555;28;20531;-83
2024/04/01 06:43:22;;;;;;;5.82;0.90;;;7.60;99.90;;;6.94;100.00;99166.03;4186845;28;20022;-83
2024/04/01 06:45:23;;;;;;;4.63;1.45;;;7.70;99.90;;;7.02;100.00;99173.84;4185765;28;20070;-83
2024/04/01 06:47:24;;;;;;;11.43;1.60;;;7.70;99.90;;;7.09;100.00;99180.03;4185758;28;20017;-83
2024/04/01 06:49:25;;;;;;;8.27;2.38;;;7.80;99.90;;;7.12;100.00;99184.94;4202154;28;20024;-83
2024/04/01 06:51:25;;;;;;;6.82;1.98;;;7.80;99.90;;;7.18;100.00;99183.44;4186815;28;20029;-83
2024/04/01 06:53:27;;;;;;;11.05;3.20;;;7.90;99.90;;;7.26;100.00;99193.06;4185513;28;20051;-84
2024/04/01 06:55:28;;;;;;;9.00;2.78;;;7.90;99.90;;;7.36;100.00;99194.47;4185386;28;20117;-82
2024/04/01 06:57:28;;;;;;;8.00;2.70;;;8.00;99.90;;;7.49;100.00;99192.09;4185270;28;20029;-84
2024/04/01 06:59:29;;;;;;;5.03;1.55;;;8.20;99.90;;;7.70;100.00;99205.41;4185494;28;20025;-84
2024/04/01 07:01:31;;;;;;;4.68;1.92;;;8.30;99.90;;;7.90;100.00;99203.13;4185549;28;20044;-84
2024/04/01 07:03:31;;;;;;;6.95;2.25;;;8.50;99.90;;;8.13;100.00;99221.47;4186578;28;20064;-82
2024/04/01 07:05:33;;;;;;;9.55;1.73;;;8.70;99.90;;;8.22;100.00;99239.59;4202058;28;20035;-83
2024/04/01 07:07:35;;;;;;;6.75;1.35;;;8.80;99.90;;;8.23;100.00;99229.94;4186440;28;20439;-82
2024/04/01 07:09:36;;;;;;;9.75;1.10;;;8.90;99.90;;;8.18;100.00;99251.44;4185399;28;20484;-84
2024/04/01 07:11:36;;;;;;;5.53;1.50;;;8.90;99.90;;;8.08;100.00;99250.91;4186309;28;20032;-84
2024/04/01 07:13:37;;;;;;;6.78;1.00;;;8.80;99.90;;;7.97;100.00;99245.25;4185277;28;20106;-84
2024/04/01 07:15:39;;;;;;;7.05;0.93;;;8.70;99.90;;;7.88;100.00;99236.63;4185111;28;20550;-83
2024/04/01 07:17:43;;;;;;;3.72;0.85;;;8.70;99.90;;;7.84;100.00;99226.63;4188317;28;20025;-84
2024/04/01 07:19:43;;;;;;;8.75;1.45;;;8.60;99.90;;;7.78;100.00;99207.16;4185358;28;20024;-83
2024/04/01 07:21:44;;;;;;;4.00;1.42;;;8.60;99.90;;;7.87;100.00;99215.78;4201722;28;20420;-84
2024/04/01 07:23:46;;;;;;;8.18;1.38;;;8.60;99.90;;;7.91;100.00;99214.44;4180682;28;20108;-85
2024/04/01 07:25:47;;;;;;;7.65;1.33;;;8.60;99.90;;;7.95;100.00;99213.91;4184638;28;20037;-84
2024/04/01 07:27:48;;;;;;;7.95;2.20;;;8.60;99.90;;;8.00;100.00;99218.63;4184949;28;20635;-83
2024/04/01 07:29:49;;;;;;;6.65;1.60;;;8.60;99.90;;;8.03;100.00;99216.47;4184934;28;20025;-83
2024/04/01 07:31:50;;;;;;;5.50;2.10;;;8.70;99.90;;;8.06;100.00;99221.38;4185850;28;20036;-82
2024/04/01 07:33:51;;;;;;;7.65;1.67;;;8.70;99.90;;;8.10;100.00;99213.94;4186197;28;20033;-84
2024/04/01 07:35:52;;;;;;;6.80;1.52;;;8.70;99.90;;;8.11;100.00;99221.66;4188399;28;20033;-84
2024/04/01 07:37:53;;;;;;;4.63;1.60;;;8.70;99.90;;;8.11;100.00;99223.47;4198399;28;20052;-83
2024/04/01 07:39:54;;;;;;;5.80;1.60;;;8.80;99.90;;;8.12;100.00;99223.28;4197210;28;20028;-84
2024/04/01 07:41:55;;;;;;;6.45;1.30;;;8.80;99.90;;;8.16;100.00;99231.63;4184619;28;20025;-84
2024/04/01 07:43:57;;;;;;;6.25;1.05;;;8.80;99.90;;;8.19;100.00;99229.47;4202589;28;20094;-84
2024/04/01 07:45:58;;;;;;;4.75;0.98;;;8.80;99.90;;;8.22;100.00;99225.66;4202489;28;20472;-84
2024/04/01 07:47:59;;;;;;;4.00;0.88;;;8.90;99.90;;;8.26;100.00;99233.03;4184719;28;20028;-84
2024/04/01 07:49:59;;;;;;;3.67;1.17;;;8.90;99.90;;;8.33;100.00;99238.41;4200523;28;20028;-84
2024/04/01 07:52:02;;;;;;;9.20;1.73;;;9.00;99.90;;;8.38;100.00;99241.31;4202482;28;20107;-84
2024/04/01 07:54:03;;;;;;;6.00;1.95;;;9.00;99.90;;;8.47;100.00;99244.69;4184746;28;20029;-84
2024/04/01 07:56:04;;;;;;;4.05;1.23;;;9.10;99.90;;;8.51;100.00;99238.88;4201981;28;20036;-84
2024/04/01 07:58:05;;;;;;;4.80;0.68;;;9.10;99.90;;;8.51;100.00;99241.50;4202189;28;20039;-84
2024/04/01 08:00:08;;;;;;;4.97;0.80;;;9.20;99.90;;;8.55;100.00;99245.41;4202286;28;20032;-83
2024/04/01 08:02:09;;;;;;;4.95;2.17;;;9.20;99.90;;;8.65;100.00;99253.88;4168034;28;20147;-83
2024/04/01 08:04:09;;;;;;;2.85;1.00;;;9.30;99.90;;;8.73;100.00;99248.50;4202037;28;20033;-83
2024/04/01 08:06:11;;;;;;;6.47;1.02;;;9.40;99.90;;;8.86;100.00;99245.25;4202032;28;20017;-84
2024/04/01 08:08:12;;;;;;;6.60;0.80;;;9.50;99.90;;;9.01;100.00;99250.50;4184571;28;20111;-83
2024/04/01 08:10:13;;;;;;;4.07;1.13;;;9.60;99.90;;;9.28;100.00;99263.00;4201914;28;20024;-83
2024/04/01 08:12:14;;;;;;;2.78;1.00;;;9.90;99.90;;;9.48;100.00;99266.69;4184329;28;20033;-83
2024/04/01 08:14:16;;;;;;;4.47;1.05;;;10.10;99.90;;;9.70;100.00;99272.81;4201989;28;20025;-83
2024/04/01 08:16:17;;;;;;;6.30;1.42;;;10.30;99.90;;;9.83;100.00;99273.75;4184376;28;20121;-82
2024/04/01 08:18:18;;;;;;;9.05;1.48;;;10.50;99.90;;;10.04;100.00;99272.94;4188857;28;20029;-82
2024/04/01 08:20:19;;;;;;;10.77;2.58;;;10.70;99.90;;;10.12;100.00;99279.94;4201588;28;20032;-83
2024/04/01 08:22:20;;;;;;;5.65;2.10;;;10.80;99.90;;;10.30;100.00;99283.78;4201762;28;20036;-83
2024/04/01 08:24:21;;;;;;;6.47;2.40;;;11.00;99.90;;;10.51;100.00;99283.72;4200287;28;20037;-85
2024/04/01 08:26:22;;;;;;;4.93;1.90;;;11.20;99.90;;;10.66;100.00;99272.28;4170323;28;20028;-83
2024/04/01 08:28:23;;;;;;;7.35;2.60;;;11.40;99.90;;;10.87;100.00;99278.31;4201987;28;20025;-84
2024/04/01 08:30:24;;;;;;;9.95;1.67;;;11.60;99.90;;;11.30;100.00;99292.16;4183847;28;20033;-82
2024/04/01 08:32:25;;;;;;;5.22;1.17;;;11.90;99.90;;;11.73;100.00;99292.78;4201961;28;20020;-84
2024/04/01 08:34:26;;;;;;;5.75;1.02;;;12.30;99.90;;;11.88;100.00;99311.94;4201256;28;20024;-84